sensor_id;sensor_type;location;lat;lon;timestamp;temperature;humidity
49765;DHT22;35657;51.204;-4.130;2023-04-03T00:02:18;8.80;99.90
49765;DHT22;35657;51.204;-4.130;2023-04-03T00:04:43;8.80;99.90
49765;DHT22;35657;51.204;-4.130;2023-04-03T00:07:09;8.80;99.90
49765;DHT22;35657;51.204;-4.130;2023-04-03T00:09:35;8.90;99.90
49765;DHT22;35657;51.204;-4.130;2023-04-03T00:12:01;8.90;99.90
49765;DHT22;35657;51.204;-4.130;2023-04-03T00:14:26;8.80;99.90
49765;DHT22;35657;51.204;-4.130;2023-04-03T00:16:53;8.80;99.90
49765;DHT22;35657;51.204;-4.130;2023-04-03T00:19:19;8.80;99.90
49765;DHT22;35657;51.204;-4.130;2023-04-03T00:21:45;8.80;99.90
49765;DHT22;35657;51.204;-4.130;2023-04-03T00:24:11;8.80;99.90
49765;DHT22;35657;51.204;-4.130;2023-04-03T00:26:36;8.70;99.90
49765;DHT22;35657;51.204;-4.130;2023-04-03T00:29:02;8.80;99.90
49765;DHT22;35657;51.204;-4.130;2023-04-03T00:31:28;8.80;99.90
49765;DHT22;35657;51.204;-4.130;2023-04-03T00:33:54;8.80;99.90
49765;DHT22;35657;51.204;-4.130;2023-04-03T00:36:20;8.80;99.90
49765;DHT22;35657;51.204;-4.130;2023-04-03T00:38:45;8.90;99.90
49765;DHT22;35657;51.204;-4.130;2023-04-03T00:41:11;8.80;99.90
49765;DHT22;35657;51.204;-4.130;2023-04-03T00:43:37;8.70;99.90
49765;DHT22;35657;51.204;-4.130;2023-04-03T00:46:03;8.70;99.90
49765;DHT22;35657;51.204;-4.130;2023-04-03T00:48:42;8.60;99.90
49765;DHT22;35657;51.204;-4.130;2023-04-03T00:51:13;8.50;99.90
49765;DHT22;35657;51.204;-4.130;2023-04-03T00:54:03;8.40;99.90
49765;DHT22;35657;51.204;-4.130;2023-04-03T00:56:31;8.40;99.90
49765;DHT22;35657;51.204;-4.130;2023-04-03T01:01:32;8.40;99.90
49765;DHT22;35657;51.204;-4.130;2023-04-03T01:03:59;8.30;99.90
49765;DHT22;35657;51.204;-4.130;2023-04-03T01:06:29;8.30;99.90
49765;DHT22;35657;51.204;-4.130;2023-04-03T01:08:59;8.40;99.90
49765;DHT22;35657;51.204;-4.130;2023-04-03T01:11:25;8.30;99.90
49765;DHT22;35657;51.204;-4.130;2023-04-03T01:13:52;8.30;99.90
49765;DHT22;35657;51.204;-4.130;2023-04-03T01:16:18;8.30;99.90
49765;DHT22;35657;51.204;-4.130;2023-04-03T01:18:45;8.30;99.90
49765;DHT22;35657;51.204;-4.130;2023-04-03T01:24:33;8.40;99.90
49765;DHT22;35657;51.204;-4.130;2023-04-03T01:27:01;8.50;99.90
49765;DHT22;35657;51.204;-4.130;2023-04-03T01:29:28;8.30;99.90
49765;DHT22;35657;51.204;-4.130;2023-04-03T01:31:56;8.40;99.90
49765;DHT22;35657;51.204;-4.130;2023-04-03T01:34:23;8.40;99.90
49765;DHT22;35657;51.204;-4.130;2023-04-03T01:36:49;8.40;99.90
49765;DHT22;35657;51.204;-4.130;2023-04-03T01:39:16;8.40;99.90
49765;DHT22;35657;51.204;-4.130;2023-04-03T01:41:42;8.40;99.90
49765;DHT22;35657;51.204;-4.130;2023-04-03T01:44:07;8.30;99.90
49765;DHT22;35657;51.204;-4.130;2023-04-03T01:46:33;8.30;99.90
49765;DHT22;35657;51.204;-4.130;2023-04-03T01:48:59;8.30;99.90
49765;DHT22;35657;51.204;-4.130;2023-04-03T01:51:25;8.40;99.90
49765;DHT22;35657;51.204;-4.130;2023-04-03T01:53:51;8.40;99.90
49765;DHT22;35657;51.204;-4.130;2023-04-03T01:56:17;8.40;99.90
49765;DHT22;35657;51.204;-4.130;2023-04-03T01:58:42;8.40;99.90
49765;DHT22;35657;51.204;-4.130;2023-04-03T02:01:08;8.50;99.90
49765;DHT22;35657;51.204;-4.130;2023-04-03T02:03:34;8.40;99.90
49765;DHT22;35657;51.204;-4.130;2023-04-03T02:06:00;8.60;99.90
49765;DHT22;35657;51.204;-4.130;2023-04-03T02:08:25;8.50;99.90
49765;DHT22;35657;51.204;-4.130;2023-04-03T02:10:51;8.60;99.90
49765;DHT22;35657;51.204;-4.130;2023-04-03T02:13:17;8.50;99.90
49765;DHT22;35657;51.204;-4.130;2023-04-03T02:15:43;8.40;99.90
49765;DHT22;35657;51.204;-4.130;2023-04-03T02:18:09;8.40;99.90
49765;DHT22;35657;51.204;-4.130;2023-04-03T02:20:35;8.40;99.90
49765;DHT22;35657;51.204;-4.130;2023-04-03T02:23:01;8.40;99.90
49765;DHT22;35657;51.204;-4.130;2023-04-03T02:25:27;8.40;99.90
49765;DHT22;35657;51.204;-4.130;2023-04-03T02:27:52;8.30;99.90
49765;DHT22;35657;51.204;-4.130;2023-04-03T02:30:18;8.20;99.90
49765;DHT22;35657;51.204;-4.130;2023-04-03T02:32:44;8.20;99.90
49765;DHT22;35657;51.204;-4.130;2023-04-03T02:35:11;8.30;99.90
49765;DHT22;35657;51.204;-4.130;2023-04-03T02:37:37;8.30;99.90
49765;DHT22;35657;51.204;-4.130;2023-04-03T02:40:03;8.20;99.90
49765;DHT22;35657;51.204;-4.130;2023-04-03T02:42:29;8.20;99.90
49765;DHT22;35657;51.204;-4.130;2023-04-03T02:44:55;8.10;99.90
49765;DHT22;35657;51.204;-4.130;2023-04-03T02:47:21;8.10;99.90
49765;DHT22;35657;51.204;-4.130;2023-04-03T02:49:47;8.10;99.90
49765;DHT22;35657;51.204;-4.130;2023-04-03T02:52:13;8.20;99.90
49765;DHT22;35657;51.204;-4.130;2023-04-03T02:54:39;8.20;99.90
49765;DHT22;35657;51.204;-4.130;2023-04-03T02:57:05;8.10;99.90
49765;DHT22;35657;51.204;-4.130;2023-04-03T02:59:31;8.20;99.90
49765;DHT22;35657;51.204;-4.130;2023-04-03T03:01:56;8.10;99.90
49765;DHT22;35657;51.204;-4.130;2023-04-03T03:04:22;8.20;99.90
49765;DHT22;35657;51.204;-4.130;2023-04-03T03:06:48;8.10;99.90
49765;DHT22;35657;51.204;-4.130;2023-04-03T03:09:14;8.10;99.90
49765;DHT22;35657;51.204;-4.130;2023-04-03T03:11:40;8.10;99.90
49765;DHT22;35657;51.204;-4.130;2023-04-03T03:14:05;8.10;99.90
49765;DHT22;35657;51.204;-4.130;2023-04-03T03:16:31;8.20;99.90
49765;DHT22;35657;51.204;-4.130;2023-04-03T03:18:57;8.10;99.90
49765;DHT22;35657;51.204;-4.130;2023-04-03T03:21:23;8.10;99.90
49765;DHT22;35657;51.204;-4.130;2023-04-03T03:23:48;8.10;99.90
49765;DHT22;35657;51.204;-4.130;2023-04-03T03:26:14;8.00;99.90
49765;DHT22;35657;51.204;-4.130;2023-04-03T03:28:40;8.00;99.90
49765;DHT22;35657;51.204;-4.130;2023-04-03T03:31:08;8.00;99.90
49765;DHT22;35657;51.204;-4.130;2023-04-03T03:33:34;7.90;99.90
49765;DHT22;35657;51.204;-4.130;2023-04-03T03:36:00;7.90;99.90
49765;DHT22;35657;51.204;-4.130;2023-04-03T03:38:26;8.00;99.90
49765;DHT22;35657;51.204;-4.130;2023-04-03T03:40:52;8.10;99.90
49765;DHT22;35657;51.204;-4.130;2023-04-03T03:43:18;8.00;99.90
49765;DHT22;35657;51.204;-4.130;2023-04-03T03:45:44;7.90;99.90
49765;DHT22;35657;51.204;-4.130;2023-04-03T03:48:11;7.90;99.90
49765;DHT22;35657;51.204;-4.130;2023-04-03T03:50:36;7.90;99.90
49765;DHT22;35657;51.204;-4.130;2023-04-03T03:53:02;7.70;99.90
49765;DHT22;35657;51.204;-4.130;2023-04-03T03:55:28;7.70;99.90
49765;DHT22;35657;51.204;-4.130;2023-04-03T03:57:53;7.70;99.90
49765;DHT22;35657;51.204;-4.130;2023-04-03T04:00:19;7.70;99.90
49765;DHT22;35657;51.204;-4.130;2023-04-03T04:02:45;7.80;99.90
49765;DHT22;35657;51.204;-4.130;2023-04-03T04:05:11;7.70;99.90
49765;DHT22;35657;51.204;-4.130;2023-04-03T04:07:37;7.80;99.90
49765;DHT22;35657;51.204;-4.130;2023-04-03T04:10:02;7.90;99.90
49765;DHT22;35657;51.204;-4.130;2023-04-03T04:12:28;7.90;99.90
49765;DHT22;35657;51.204;-4.130;2023-04-03T04:14:54;7.90;99.90
49765;DHT22;35657;51.204;-4.130;2023-04-03T04:17:20;7.90;99.90
49765;DHT22;35657;51.204;-4.130;2023-04-03T04:19:46;7.90;99.90
49765;DHT22;35657;51.204;-4.130;2023-04-03T04:22:12;7.90;99.90
49765;DHT22;35657;51.204;-4.130;2023-04-03T04:24:38;7.90;99.90
49765;DHT22;35657;51.204;-4.130;2023-04-03T04:27:03;7.90;99.90
49765;DHT22;35657;51.204;-4.130;2023-04-03T04:29:29;7.90;99.90
49765;DHT22;35657;51.204;-4.130;2023-04-03T04:31:55;7.90;99.90
49765;DHT22;35657;51.204;-4.130;2023-04-03T04:34:21;7.90;99.90
49765;DHT22;35657;51.204;-4.130;2023-04-03T04:36:47;7.90;99.90
49765;DHT22;35657;51.204;-4.130;2023-04-03T04:39:12;7.90;99.90
49765;DHT22;35657;51.204;-4.130;2023-04-03T04:41:38;7.80;99.90
49765;DHT22;35657;51.204;-4.130;2023-04-03T04:44:04;7.80;99.90
49765;DHT22;35657;51.204;-4.130;2023-04-03T04:46:29;7.80;99.90
49765;DHT22;35657;51.204;-4.130;2023-04-03T04:48:55;7.80;99.90
49765;DHT22;35657;51.204;-4.130;2023-04-03T04:51:21;7.90;99.90
49765;DHT22;35657;51.204;-4.130;2023-04-03T04:53:47;7.90;99.90
49765;DHT22;35657;51.204;-4.130;2023-04-03T04:56:12;7.90;99.90
49765;DHT22;35657;51.204;-4.130;2023-04-03T04:58:38;7.80;99.90
49765;DHT22;35657;51.204;-4.130;2023-04-03T05:01:06;7.80;99.90
49765;DHT22;35657;51.204;-4.130;2023-04-03T05:03:32;7.80;99.90
49765;DHT22;35657;51.204;-4.130;2023-04-03T05:05:58;7.80;99.90
49765;DHT22;35657;51.204;-4.130;2023-04-03T05:08:25;7.80;99.90
49765;DHT22;35657;51.204;-4.130;2023-04-03T05:10:51;7.80;99.90
49765;DHT22;35657;51.204;-4.130;2023-04-03T05:13:17;7.70;99.90
49765;DHT22;35657;51.204;-4.130;2023-04-03T05:15:43;7.70;99.90
49765;DHT22;35657;51.204;-4.130;2023-04-03T05:18:08;7.70;99.90
49765;DHT22;35657;51.204;-4.130;2023-04-03T05:20:35;7.70;99.90
49765;DHT22;35657;51.204;-4.130;2023-04-03T05:23:02;7.70;99.90
49765;DHT22;35657;51.204;-4.130;2023-04-03T05:25:29;7.70;99.90
49765;DHT22;35657;51.204;-4.130;2023-04-03T05:27:55;7.70;99.90
49765;DHT22;35657;51.204;-4.130;2023-04-03T05:30:21;7.70;99.90
49765;DHT22;35657;51.204;-4.130;2023-04-03T05:32:47;7.70;99.90
49765;DHT22;35657;51.204;-4.130;2023-04-03T05:35:12;7.70;99.90
49765;DHT22;35657;51.204;-4.130;2023-04-03T05:37:38;7.80;99.90
49765;DHT22;35657;51.204;-4.130;2023-04-03T05:40:05;7.70;99.90
49765;DHT22;35657;51.204;-4.130;2023-04-03T05:42:32;7.70;99.90
49765;DHT22;35657;51.204;-4.130;2023-04-03T05:44:58;7.70;99.90
49765;DHT22;35657;51.204;-4.130;2023-04-03T05:47:23;7.70;99.90
49765;DHT22;35657;51.204;-4.130;2023-04-03T05:49:49;7.70;99.90
49765;DHT22;35657;51.204;-4.130;2023-04-03T05:52:25;7.70;99.90
49765;DHT22;35657;51.204;-4.130;2023-04-03T05:54:51;7.70;99.90
49765;DHT22;35657;51.204;-4.130;2023-04-03T05:57:17;7.70;99.90
49765;DHT22;35657;51.204;-4.130;2023-04-03T05:59:45;7.70;99.90
49765;DHT22;35657;51.204;-4.130;2023-04-03T06:02:13;7.70;99.90
49765;DHT22;35657;51.204;-4.130;2023-04-03T06:04:39;7.70;99.90
49765;DHT22;35657;51.204;-4.130;2023-04-03T06:07:06;7.70;99.90
49765;DHT22;35657;51.204;-4.130;2023-04-03T06:09:33;7.70;99.90
49765;DHT22;35657;51.204;-4.130;2023-04-03T06:11:59;7.70;99.90
49765;DHT22;35657;51.204;-4.130;2023-04-03T06:14:26;7.70;99.90
49765;DHT22;35657;51.204;-4.130;2023-04-03T06:16:52;7.70;99.90
49765;DHT22;35657;51.204;-4.130;2023-04-03T06:19:19;7.60;99.90
49765;DHT22;35657;51.204;-4.130;2023-04-03T06:21:46;7.70;99.90
49765;DHT22;35657;51.204;-4.130;2023-04-03T06:24:16;7.60;99.90
49765;DHT22;35657;51.204;-4.130;2023-04-03T06:26:42;7.50;99.90
49765;DHT22;35657;51.204;-4.130;2023-04-03T06:29:08;7.30;99.90
49765;DHT22;35657;51.204;-4.130;2023-04-03T06:31:34;7.20;99.90
49765;DHT22;35657;51.204;-4.130;2023-04-03T06:34:02;7.20;99.90
49765;DHT22;35657;51.204;-4.130;2023-04-03T06:36:28;7.10;99.90
49765;DHT22;35657;51.204;-4.130;2023-04-03T06:38:54;7.10;99.90
49765;DHT22;35657;51.204;-4.130;2023-04-03T06:41:20;7.10;99.90
49765;DHT22;35657;51.204;-4.130;2023-04-03T06:43:47;7.10;99.90
49765;DHT22;35657;51.204;-4.130;2023-04-03T06:46:17;7.10;99.90
49765;DHT22;35657;51.204;-4.130;2023-04-03T06:48:44;7.10;99.90
49765;DHT22;35657;51.204;-4.130;2023-04-03T06:51:22;7.10;99.90
49765;DHT22;35657;51.204;-4.130;2023-04-03T06:53:50;7.10;99.90
49765;DHT22;35657;51.204;-4.130;2023-04-03T06:56:16;7.20;99.90
49765;DHT22;35657;51.204;-4.130;2023-04-03T06:58:43;7.30;99.90
49765;DHT22;35657;51.204;-4.130;2023-04-03T07:01:11;7.20;99.90
49765;DHT22;35657;51.204;-4.130;2023-04-03T07:03:38;7.40;99.90
49765;DHT22;35657;51.204;-4.130;2023-04-03T07:06:04;7.40;99.90
49765;DHT22;35657;51.204;-4.130;2023-04-03T07:08:31;7.30;99.90
49765;DHT22;35657;51.204;-4.130;2023-04-03T07:10:57;7.30;99.90
49765;DHT22;35657;51.204;-4.130;2023-04-03T07:13:23;7.40;99.90
49765;DHT22;35657;51.204;-4.130;2023-04-03T07:15:48;7.30;99.90
49765;DHT22;35657;51.204;-4.130;2023-04-03T07:18:15;7.30;99.90
49765;DHT22;35657;51.204;-4.130;2023-04-03T07:20:42;7.20;99.90
49765;DHT22;35657;51.204;-4.130;2023-04-03T07:23:08;7.40;99.90
49765;DHT22;35657;51.204;-4.130;2023-04-03T07:25:35;7.60;99.90
49765;DHT22;35657;51.204;-4.130;2023-04-03T07:28:00;7.60;99.90
49765;DHT22;35657;51.204;-4.130;2023-04-03T07:30:26;7.50;99.90
49765;DHT22;35657;51.204;-4.130;2023-04-03T07:32:52;7.50;99.90
49765;DHT22;35657;51.204;-4.130;2023-04-03T07:35:18;7.60;99.90
49765;DHT22;35657;51.204;-4.130;2023-04-03T07:37:44;7.50;99.90
49765;DHT22;35657;51.204;-4.130;2023-04-03T07:40:10;7.60;99.90
49765;DHT22;35657;51.204;-4.130;2023-04-03T07:42:36;7.70;99.90
49765;DHT22;35657;51.204;-4.130;2023-04-03T07:45:03;7.70;99.90
49765;DHT22;35657;51.204;-4.130;2023-04-03T07:47:29;7.70;99.90
49765;DHT22;35657;51.204;-4.130;2023-04-03T07:49:55;7.70;99.90
49765;DHT22;35657;51.204;-4.130;2023-04-03T07:52:23;7.70;99.90
49765;DHT22;35657;51.204;-4.130;2023-04-03T07:54:49;7.80;99.90
49765;DHT22;35657;51.204;-4.130;2023-04-03T07:57:14;7.70;99.90
49765;DHT22;35657;51.204;-4.130;2023-04-03T07:59:40;7.80;99.90
49765;DHT22;35657;51.204;-4.130;2023-04-03T08:02:10;7.80;99.90
49765;DHT22;35657;51.204;-4.130;2023-04-03T08:04:36;7.80;99.90
49765;DHT22;35657;51.204;-4.130;2023-04-03T08:07:02;7.80;99.90
49765;DHT22;35657;51.204;-4.130;2023-04-03T08:09:28;7.80;99.90
49765;DHT22;35657;51.204;-4.130;2023-04-03T08:11:53;7.80;99.90
49765;DHT22;35657;51.204;-4.130;2023-04-03T08:14:20;7.80;99.90
49765;DHT22;35657;51.204;-4.130;2023-04-03T08:16:47;7.80;99.90
49765;DHT22;35657;51.204;-4.130;2023-04-03T08:19:14;7.90;99.90
49765;DHT22;35657;51.204;-4.130;2023-04-03T08:21:42;8.00;99.90
49765;DHT22;35657;51.204;-4.130;2023-04-03T08:24:08;8.00;99.90
49765;DHT22;35657;51.204;-4.130;2023-04-03T08:26:34;8.10;99.90
49765;DHT22;35657;51.204;-4.130;2023-04-03T08:29:00;8.10;99.90
49765;DHT22;35657;51.204;-4.130;2023-04-03T08:31:26;8.20;99.90
49765;DHT22;35657;51.204;-4.130;2023-04-03T08:33:53;8.20;99.90
49765;DHT22;35657;51.204;-4.130;2023-04-03T08:36:28;8.30;99.90
49765;DHT22;35657;51.204;-4.130;2023-04-03T08:38:55;8.30;99.90
49765;DHT22;35657;51.204;-4.130;2023-04-03T08:47:01;8.50;99.90
49765;DHT22;35657;51.204;-4.130;2023-04-03T08:51:54;8.60;99.90
49765;DHT22;35657;51.204;-4.130;2023-04-03T08:54:29;8.70;99.90
49765;DHT22;35657;51.204;-4.130;2023-04-03T08:56:57;8.90;99.90
49765;DHT22;35657;51.204;-4.130;2023-04-03T08:59:28;9.00;99.90
49765;DHT22;35657;51.204;-4.130;2023-04-03T09:01:56;9.20;99.90
49765;DHT22;35657;51.204;-4.130;2023-04-03T09:04:23;9.20;99.90
49765;DHT22;35657;51.204;-4.130;2023-04-03T09:06:54;9.00;99.90
49765;DHT22;35657;51.204;-4.130;2023-04-03T09:09:41;8.90;99.90
49765;DHT22;35657;51.204;-4.130;2023-04-03T09:12:38;8.90;99.90
49765;DHT22;35657;51.204;-4.130;2023-04-03T09:15:15;8.90;99.90
49765;DHT22;35657;51.204;-4.130;2023-04-03T09:22:40;8.60;99.90
49765;DHT22;35657;51.204;-4.130;2023-04-03T09:25:36;8.60;99.90
49765;DHT22;35657;51.204;-4.130;2023-04-03T09:28:03;8.70;99.90
49765;DHT22;35657;51.204;-4.130;2023-04-03T09:30:29;8.70;99.90
49765;DHT22;35657;51.204;-4.130;2023-04-03T09:32:56;8.60;99.90
49765;DHT22;35657;51.204;-4.130;2023-04-03T09:35:33;8.50;99.90
49765;DHT22;35657;51.204;-4.130;2023-04-03T09:40:47;8.60;99.90
49765;DHT22;35657;51.204;-4.130;2023-04-03T09:45:52;8.60;99.90
49765;DHT22;35657;51.204;-4.130;2023-04-03T09:48:24;8.60;99.90
49765;DHT22;35657;51.204;-4.130;2023-04-03T09:53:38;8.80;99.90
49765;DHT22;35657;51.204;-4.130;2023-04-03T09:58:49;8.70;99.90
49765;DHT22;35657;51.204;-4.130;2023-04-03T10:01:31;8.70;99.90
49765;DHT22;35657;51.204;-4.130;2023-04-03T10:12:04;8.60;99.90
49765;DHT22;35657;51.204;-4.130;2023-04-03T10:30:32;9.40;99.90
49765;DHT22;35657;51.204;-4.130;2023-04-03T10:36:04;9.10;99.90
49765;DHT22;35657;51.204;-4.130;2023-04-03T10:46:46;9.20;99.90
49765;DHT22;35657;51.204;-4.130;2023-04-03T10:49:35;9.10;99.90
49765;DHT22;35657;51.204;-4.130;2023-04-03T10:52:15;8.80;99.90
49765;DHT22;35657;51.204;-4.130;2023-04-03T10:57:31;8.90;99.90
49765;DHT22;35657;51.204;-4.130;2023-04-03T11:00:04;9.00;99.90
49765;DHT22;35657;51.204;-4.130;2023-04-03T11:02:57;9.00;99.90
49765;DHT22;35657;51.204;-4.130;2023-04-03T11:08:10;9.10;99.90
49765;DHT22;35657;51.204;-4.130;2023-04-03T11:10:49;9.00;99.90
49765;DHT22;35657;51.204;-4.130;2023-04-03T11:15:45;9.30;99.90
49765;DHT22;35657;51.204;-4.130;2023-04-03T11:18:22;9.10;99.90
49765;DHT22;35657;51.204;-4.130;2023-04-03T11:21:16;9.10;99.90
49765;DHT22;35657;51.204;-4.130;2023-04-03T11:23:46;9.20;99.90
49765;DHT22;35657;51.204;-4.130;2023-04-03T11:26:17;9.20;99.90
49765;DHT22;35657;51.204;-4.130;2023-04-03T11:28:43;9.60;99.90
49765;DHT22;35657;51.204;-4.130;2023-04-03T11:33:47;9.50;99.90
49765;DHT22;35657;51.204;-4.130;2023-04-03T11:36:21;9.50;99.90
49765;DHT22;35657;51.204;-4.130;2023-04-03T11:38:49;9.60;99.90
49765;DHT22;35657;51.204;-4.130;2023-04-03T11:41:28;9.70;99.90
49765;DHT22;35657;51.204;-4.130;2023-04-03T12:08:28;9.80;99.90
49765;DHT22;35657;51.204;-4.130;2023-04-03T12:26:43;9.70;99.90
49765;DHT22;35657;51.204;-4.130;2023-04-03T12:48:18;10.00;99.90
49765;DHT22;35657;51.204;-4.130;2023-04-03T12:50:49;9.90;99.90
49765;DHT22;35657;51.204;-4.130;2023-04-03T12:53:28;9.90;99.90
49765;DHT22;35657;51.204;-4.130;2023-04-03T12:56:25;9.90;99.90
49765;DHT22;35657;51.204;-4.130;2023-04-03T12:58:54;9.90;99.90
49765;DHT22;35657;51.204;-4.130;2023-04-03T13:01:26;9.90;99.90
49765;DHT22;35657;51.204;-4.130;2023-04-03T13:03:54;9.80;99.90
49765;DHT22;35657;51.204;-4.130;2023-04-03T13:06:32;9.80;99.90
49765;DHT22;35657;51.204;-4.130;2023-04-03T13:09:00;9.80;99.90
49765;DHT22;35657;51.204;-4.130;2023-04-03T13:11:40;9.80;99.90
49765;DHT22;35657;51.204;-4.130;2023-04-03T13:14:22;9.80;99.90
49765;DHT22;35657;51.204;-4.130;2023-04-03T13:17:06;9.80;99.90
49765;DHT22;35657;51.204;-4.130;2023-04-03T13:19:35;9.70;99.90
49765;DHT22;35657;51.204;-4.130;2023-04-03T13:22:05;9.90;99.90
49765;DHT22;35657;51.204;-4.130;2023-04-03T13:24:33;9.90;99.90
49765;DHT22;35657;51.204;-4.130;2023-04-03T13:27:01;9.80;99.90
49765;DHT22;35657;51.204;-4.130;2023-04-03T13:29:33;9.90;99.90
49765;DHT22;35657;51.204;-4.130;2023-04-03T13:32:01;9.90;99.90
49765;DHT22;35657;51.204;-4.130;2023-04-03T13:34:35;9.90;99.90
49765;DHT22;35657;51.204;-4.130;2023-04-03T13:37:02;9.90;99.90
49765;DHT22;35657;51.204;-4.130;2023-04-03T13:39:36;9.90;99.90
49765;DHT22;35657;51.204;-4.130;2023-04-03T13:42:20;9.90;99.90
49765;DHT22;35657;51.204;-4.130;2023-04-03T13:44:47;9.90;99.90
49765;DHT22;35657;51.204;-4.130;2023-04-03T13:47:21;9.90;99.90
49765;DHT22;35657;51.204;-4.130;2023-04-03T13:50:23;9.80;99.90
49765;DHT22;35657;51.204;-4.130;2023-04-03T13:53:09;9.90;99.90
49765;DHT22;35657;51.204;-4.130;2023-04-03T13:55:50;9.90;99.90
49765;DHT22;35657;51.204;-4.130;2023-04-03T13:58:31;9.90;99.90
49765;DHT22;35657;51.204;-4.130;2023-04-03T14:01:18;9.90;99.90
49765;DHT22;35657;51.204;-4.130;2023-04-03T14:06:20;10.00;99.90
49765;DHT22;35657;51.204;-4.130;2023-04-03T14:08:47;10.00;99.90
49765;DHT22;35657;51.204;-4.130;2023-04-03T14:13:42;10.00;99.90
49765;DHT22;35657;51.204;-4.130;2023-04-03T14:16:17;10.00;99.90
49765;DHT22;35657;51.204;-4.130;2023-04-03T14:18:44;10.00;99.90
49765;DHT22;35657;51.204;-4.130;2023-04-03T14:21:13;10.10;99.90
49765;DHT22;35657;51.204;-4.130;2023-04-03T14:23:39;10.10;99.90
49765;DHT22;35657;51.204;-4.130;2023-04-03T14:26:11;10.10;99.90
49765;DHT22;35657;51.204;-4.130;2023-04-03T14:28:37;10.10;99.90
49765;DHT22;35657;51.204;-4.130;2023-04-03T14:31:05;10.20;99.90
49765;DHT22;35657;51.204;-4.130;2023-04-03T14:33:31;10.30;99.90
49765;DHT22;35657;51.204;-4.130;2023-04-03T14:36:00;10.40;99.90
49765;DHT22;35657;51.204;-4.130;2023-04-03T14:38:29;10.50;99.90
49765;DHT22;35657;51.204;-4.130;2023-04-03T14:40:56;10.50;99.90
49765;DHT22;35657;51.204;-4.130;2023-04-03T14:43:22;10.50;99.90
49765;DHT22;35657;51.204;-4.130;2023-04-03T14:45:49;10.70;99.90
49765;DHT22;35657;51.204;-4.130;2023-04-03T14:48:20;10.70;99.90
49765;DHT22;35657;51.204;-4.130;2023-04-03T14:50:47;10.80;99.90
49765;DHT22;35657;51.204;-4.130;2023-04-03T14:53:13;10.80;99.90
49765;DHT22;35657;51.204;-4.130;2023-04-03T14:55:44;11.00;99.90
49765;DHT22;35657;51.204;-4.130;2023-04-03T14:58:18;11.00;99.90
49765;DHT22;35657;51.204;-4.130;2023-04-03T15:00:46;10.90;99.90
49765;DHT22;35657;51.204;-4.130;2023-04-03T15:03:17;10.80;99.90
49765;DHT22;35657;51.204;-4.130;2023-04-03T15:05:48;10.80;99.90
49765;DHT22;35657;51.204;-4.130;2023-04-03T15:08:26;11.20;99.90
49765;DHT22;35657;51.204;-4.130;2023-04-03T15:10:54;11.20;99.90
49765;DHT22;35657;51.204;-4.130;2023-04-03T15:13:24;11.10;99.90
49765;DHT22;35657;51.204;-4.130;2023-04-03T15:15:51;10.90;99.90
49765;DHT22;35657;51.204;-4.130;2023-04-03T15:18:21;10.80;99.90
49765;DHT22;35657;51.204;-4.130;2023-04-03T15:20:48;10.80;99.90
49765;DHT22;35657;51.204;-4.130;2023-04-03T15:23:15;10.80;99.90
49765;DHT22;35657;51.204;-4.130;2023-04-03T15:25:48;10.80;99.90
49765;DHT22;35657;51.204;-4.130;2023-04-03T15:28:35;10.70;99.90
49765;DHT22;35657;51.204;-4.130;2023-04-03T15:31:01;10.60;99.90
49765;DHT22;35657;51.204;-4.130;2023-04-03T15:33:28;10.80;99.90
49765;DHT22;35657;51.204;-4.130;2023-04-03T15:35:54;10.70;99.90
49765;DHT22;35657;51.204;-4.130;2023-04-03T15:38:20;10.60;99.90
49765;DHT22;35657;51.204;-4.130;2023-04-03T15:40:46;10.50;99.90
49765;DHT22;35657;51.204;-4.130;2023-04-03T15:43:14;10.60;99.90
49765;DHT22;35657;51.204;-4.130;2023-04-03T15:45:41;10.60;99.90
49765;DHT22;35657;51.204;-4.130;2023-04-03T15:48:08;10.50;99.90
49765;DHT22;35657;51.204;-4.130;2023-04-03T15:50:34;10.50;99.90
49765;DHT22;35657;51.204;-4.130;2023-04-03T15:53:00;10.50;99.90
49765;DHT22;35657;51.204;-4.130;2023-04-03T15:55:30;10.60;99.90
49765;DHT22;35657;51.204;-4.130;2023-04-03T15:57:56;10.50;99.90
49765;DHT22;35657;51.204;-4.130;2023-04-03T16:00:23;10.50;99.90
49765;DHT22;35657;51.204;-4.130;2023-04-03T16:03:02;10.50;99.90
49765;DHT22;35657;51.204;-4.130;2023-04-03T16:05:30;10.50;99.90
49765;DHT22;35657;51.204;-4.130;2023-04-03T16:07:57;10.50;99.90
49765;DHT22;35657;51.204;-4.130;2023-04-03T16:10:24;10.40;99.90
49765;DHT22;35657;51.204;-4.130;2023-04-03T16:12:50;10.50;99.90
49765;DHT22;35657;51.204;-4.130;2023-04-03T16:15:16;10.50;99.90
49765;DHT22;35657;51.204;-4.130;2023-04-03T16:17:42;10.40;99.90
49765;DHT22;35657;51.204;-4.130;2023-04-03T16:20:09;10.40;99.90
49765;DHT22;35657;51.204;-4.130;2023-04-03T16:22:36;10.50;99.90
49765;DHT22;35657;51.204;-4.130;2023-04-03T16:25:02;10.40;99.90
49765;DHT22;35657;51.204;-4.130;2023-04-03T16:27:28;10.50;99.90
49765;DHT22;35657;51.204;-4.130;2023-04-03T16:29:57;10.40;99.90
49765;DHT22;35657;51.204;-4.130;2023-04-03T16:32:27;10.50;99.90
49765;DHT22;35657;51.204;-4.130;2023-04-03T16:34:54;10.40;99.90
49765;DHT22;35657;51.204;-4.130;2023-04-03T16:37:20;10.40;99.90
49765;DHT22;35657;51.204;-4.130;2023-04-03T16:39:46;10.40;99.90
49765;DHT22;35657;51.204;-4.130;2023-04-03T16:42:12;10.50;99.90
49765;DHT22;35657;51.204;-4.130;2023-04-03T16:44:38;10.40;99.90
49765;DHT22;35657;51.204;-4.130;2023-04-03T16:47:05;10.40;99.90
49765;DHT22;35657;51.204;-4.130;2023-04-03T16:49:31;10.50;99.90
49765;DHT22;35657;51.204;-4.130;2023-04-03T16:52:01;10.50;99.90
49765;DHT22;35657;51.204;-4.130;2023-04-03T16:54:27;10.50;99.90
49765;DHT22;35657;51.204;-4.130;2023-04-03T16:56:53;10.50;99.90
49765;DHT22;35657;51.204;-4.130;2023-04-03T16:59:19;10.60;99.90
49765;DHT22;35657;51.204;-4.130;2023-04-03T17:01:45;10.60;99.90
49765;DHT22;35657;51.204;-4.130;2023-04-03T17:04:11;10.50;99.90
49765;DHT22;35657;51.204;-4.130;2023-04-03T17:06:38;10.60;99.90
49765;DHT22;35657;51.204;-4.130;2023-04-03T17:09:04;10.50;99.90
49765;DHT22;35657;51.204;-4.130;2023-04-03T17:11:30;10.50;99.90
49765;DHT22;35657;51.204;-4.130;2023-04-03T17:13:56;10.60;99.90
49765;DHT22;35657;51.204;-4.130;2023-04-03T17:16:22;10.80;99.90
49765;DHT22;35657;51.204;-4.130;2023-04-03T17:18:49;10.80;99.90
49765;DHT22;35657;51.204;-4.130;2023-04-03T17:21:16;10.80;99.90
49765;DHT22;35657;51.204;-4.130;2023-04-03T17:23:44;11.00;99.90
49765;DHT22;35657;51.204;-4.130;2023-04-03T17:26:12;11.10;99.90
49765;DHT22;35657;51.204;-4.130;2023-04-03T17:28:37;11.30;99.90
49765;DHT22;35657;51.204;-4.130;2023-04-03T17:31:06;11.40;99.90
49765;DHT22;35657;51.204;-4.130;2023-04-03T17:33:32;11.40;99.90
49765;DHT22;35657;51.204;-4.130;2023-04-03T17:35:59;11.40;99.90
49765;DHT22;35657;51.204;-4.130;2023-04-03T17:38:26;11.40;99.90
49765;DHT22;35657;51.204;-4.130;2023-04-03T17:40:58;11.40;99.90
49765;DHT22;35657;51.204;-4.130;2023-04-03T17:43:24;11.40;99.90
49765;DHT22;35657;51.204;-4.130;2023-04-03T17:45:50;11.50;99.90
49765;DHT22;35657;51.204;-4.130;2023-04-03T17:48:17;11.40;99.90
49765;DHT22;35657;51.204;-4.130;2023-04-03T17:50:43;11.30;99.90
49765;DHT22;35657;51.204;-4.130;2023-04-03T17:53:08;11.10;99.90
49765;DHT22;35657;51.204;-4.130;2023-04-03T17:55:38;11.10;99.90